Time;durP1;ratioP1;P1;durP2;ratioP2;P2;SDS_P1;SDS_P2;PMS_P1;PMS_P2;Temp;Humidity;BMP_temperature;BMP_pressure;BME280_temperature;BME280_humidity;BME280_pressure;Samples;Min_cycle;Max_cycle;Signal;HPM_P1;HPM_P2
2022/03/09 00:01:26;;;;;;;1.92;1.50;;;;;;;;;;5054611;28;20522;-82
2022/03/09 00:03:52;;;;;;;3.42;2.22;;;;;;;;;;5027284;28;20033;-79
2022/03/09 00:06:18;;;;;;;3.17;2.28;;;;;;;;;;5040970;28;20029;-79
2022/03/09 00:08:44;;;;;;;4.50;2.20;;;;;;;;;;5046437;28;20548;-77
2022/03/09 00:11:10;;;;;;;3.13;2.38;;;;;;;;;;5045721;28;20111;-79
2022/03/09 00:13:35;;;;;;;4.15;1.40;;;;;;;;;;5044305;28;20101;-78
2022/03/09 00:16:01;;;;;;;7.80;1.95;;;;;;;;;;5048566;28;20048;-79
2022/03/09 00:18:27;;;;;;;5.43;3.15;;;;;;;;;;5040413;28;20033;-79
2022/03/09 00:20:53;;;;;;;1.92;1.80;;;;;;;;;;5037778;28;20072;-80
2022/03/09 00:23:19;;;;;;;5.65;1.75;;;;;;;;;;5041391;28;20028;-79
2022/03/09 00:25:46;;;;;;;2.88;2.33;;;;;;;;;;5045741;28;20727;-79
2022/03/09 00:28:12;;;;;;;5.60;2.65;;;;;;;;;;5043165;28;20028;-79
2022/03/09 00:30:37;;;;;;;8.13;2.67;;;-3.60;99.90;;;;;;5047228;28;20119;-79
2022/03/09 00:33:03;;;;;;;1.85;1.48;;;;;;;;;;5046969;28;20021;-78
2022/03/09 00:35:29;;;;;;;9.13;2.45;;;;;;;;;;5043593;28;20669;-78
2022/03/09 00:37:55;;;;;;;6.68;1.95;;;;;;;;;;5049723;28;20029;-79
2022/03/09 00:40:22;;;;;;;3.85;1.27;;;;;;;;;;5049668;28;20075;-80
2022/03/09 00:42:48;;;;;;;14.57;2.95;;;;;;;;;;5044760;28;20025;-81
2022/03/09 00:45:14;;;;;;;8.90;3.20;;;;;;;;;;5042737;28;20095;-78
2022/03/09 00:47:40;;;;;;;7.35;2.95;;;;;;;;;;5043311;28;20025;-80
2022/03/09 00:50:06;;;;;;;2.47;1.55;;;;;;;;;;5044150;28;20052;-79
2022/03/09 00:52:32;;;;;;;4.05;2.28;;;;;;;;;;5045090;28;20024;-81
2022/03/09 00:54:58;;;;;;;7.70;2.22;;;;;;;;;;5046114;28;20028;-80
2022/03/09 00:57:24;;;;;;;2.70;1.42;;;;;;;;;;5039250;28;20646;-79
2022/03/09 00:59:50;;;;;;;2.88;1.67;;;;;;;;;;5040377;28;20313;-79
2022/03/09 01:02:17;;;;;;;2.72;1.80;;;;;;;;;;5046295;28;20034;-79
2022/03/09 01:04:43;;;;;;;4.22;2.08;;;;;;;;;;5044009;28;20044;-78
2022/03/09 01:07:09;;;;;;;2.35;2.00;;;;;;;;;;5042897;28;20029;-83
2022/03/09 01:09:35;;;;;;;7.20;2.13;;;;;;;;;;5048149;28;20017;-78
2022/03/09 01:12:01;;;;;;;0.82;0.82;;;;;;;;;;5039540;28;21401;-79
2022/03/09 01:14:27;;;;;;;13.32;3.80;;;;;;;;;;5037543;28;20052;-78
2022/03/09 01:16:52;;;;;;;7.25;2.05;;;;;;;;;;5048463;28;20045;-80
2022/03/09 01:19:18;;;;;;;2.10;1.90;;;;;;;;;;5044663;28;20037;-80
2022/03/09 01:21:44;;;;;;;9.50;2.08;;;;;;;;;;5041673;28;20032;-81
2022/03/09 01:24:10;;;;;;;8.95;2.20;;;;;;;;;;5049539;28;20037;-78
2022/03/09 01:26:36;;;;;;;4.63;2.13;;;;;;;;;;5044792;28;20218;-78
2022/03/09 01:29:03;;;;;;;2.65;2.10;;;;;;;;;;5042979;28;20025;-78
2022/03/09 01:31:29;;;;;;;5.63;2.85;;;;;;;;;;5045653;28;20165;-81
2022/03/09 01:33:55;;;;;;;3.55;2.10;;;;;;;;;;5045337;28;20036;-80
2022/03/09 01:36:21;;;;;;;3.25;2.20;;;;;;;;;;5039916;28;20025;-79
2022/03/09 01:38:47;;;;;;;4.10;2.15;;;;;;;;;;5041822;28;20048;-78
2022/03/09 01:41:13;;;;;;;6.40;3.35;;;;;;;;;;5044999;28;20595;-81
2022/03/09 01:43:40;;;;;;;2.00;1.67;;;;;;;;;;5039462;28;20031;-77
2022/03/09 01:46:06;;;;;;;3.15;2.47;;;;;;;;;;5043037;28;20043;-78
2022/03/09 01:48:32;;;;;;;2.53;1.13;;;;;;;;;;5042166;28;20481;-78
2022/03/09 01:50:58;;;;;;;5.63;2.67;;;;;;;;;;5041127;28;20032;-77
2022/03/09 01:53:24;;;;;;;6.38;3.47;;;;;;;;;;5047873;28;20032;-82
2022/03/09 01:55:50;;;;;;;4.65;2.20;;;;;;;;;;5043103;28;20041;-82
2022/03/09 01:58:16;;;;;;;16.80;2.55;;;;;;;;;;5038500;28;20436;-77
2022/03/09 02:00:42;;;;;;;4.70;2.65;;;;;;;;;;5052201;28;20033;-79
2022/03/09 02:03:08;;;;;;;2.53;2.33;;;;;;;;;;5041596;28;20026;-79
2022/03/09 02:05:34;;;;;;;6.10;3.28;;;;;;;;;;5044972;28;20075;-83
2022/03/09 02:10:45;;;;;;;2.00;1.80;;;;;;;;;;5046571;28;20056;-79
2022/03/09 02:13:11;;;;;;;1.70;1.58;;;;;;;;;;5043761;28;20024;-79
2022/03/09 02:15:37;;;;;;;7.25;2.97;;;;;;;;;;5046147;28;20520;-79
2022/03/09 02:18:04;;;;;;;1.95;1.38;;;;;;;;;;5045738;28;20582;-79
2022/03/09 02:20:30;;;;;;;3.33;2.20;;;;;;;;;;5043434;28;20056;-78
2022/03/09 02:22:58;;;;;;;5.90;1.40;;;;;;;;;;5049159;28;20030;-78
2022/03/09 02:25:24;;;;;;;5.18;3.13;;;;;;;;;;5045367;28;20042;-80
2022/03/09 02:27:50;;;;;;;3.80;2.47;;;;;;;;;;5034681;28;20421;-81
2022/03/09 02:30:17;;;;;;;2.20;1.45;;;;;;;;;;5046441;28;20142;-81
2022/03/09 02:32:45;;;;;;;2.38;1.80;;;;;;;;;;5047812;28;20111;-77
2022/03/09 02:35:12;;;;;;;7.40;2.25;;;;;;;;;;5042574;28;20052;-79
2022/03/09 02:37:41;;;;;;;5.13;2.47;;;;;;;;;;5046807;28;20499;-79
2022/03/09 02:40:08;;;;;;;3.58;2.58;;;;;;;;;;5046935;28;20168;-79
2022/03/09 02:42:34;;;;;;;2.45;1.77;;;;;;;;;;5040397;28;20029;-82
2022/03/09 02:45:00;;;;;;;1.67;1.23;;;;;;;;;;5039662;28;20035;-80
2022/03/09 02:47:26;;;;;;;4.80;1.77;;;;;;;;;;5039771;28;20075;-81
2022/03/09 02:49:52;;;;;;;14.10;2.08;;;;;;;;;;5044937;28;20025;-79
2022/03/09 02:52:18;;;;;;;10.85;2.88;;;;;;;;;;5045988;28;20025;-79
2022/03/09 02:54:44;;;;;;;2.30;1.92;;;;;;;;;;5038298;28;20060;-79
2022/03/09 02:57:10;;;;;;;1.92;1.83;;;;;;;;;;5048111;28;20052;-77
2022/03/09 02:59:36;;;;;;;1.58;0.88;;;;;;;;;;5042042;28;20507;-78
2022/03/09 03:02:02;;;;;;;2.55;1.48;;;;;;;;;;5051530;28;20039;-78
2022/03/09 03:04:28;;;;;;;3.10;2.25;;;;;;;;;;5040874;28;20026;-79
2022/03/09 03:06:54;;;;;;;2.90;2.13;;;;;;;;;;5041075;28;20037;-79
2022/03/09 03:09:20;;;;;;;6.65;3.03;;;;;;;;;;5050094;28;20491;-81
2022/03/09 03:11:46;;;;;;;3.55;1.27;;;;;;;;;;5043239;28;20086;-82
2022/03/09 03:14:12;;;;;;;1.08;1.02;;;;;;;;;;5042633;28;20724;-79
2022/03/09 03:16:38;;;;;;;2.20;1.60;;;;;;;;;;5045106;28;20160;-78
2022/03/09 03:19:04;;;;;;;1.70;1.48;;;;;;;;;;5050129;28;20115;-79
2022/03/09 03:21:30;;;;;;;5.35;2.20;;;;;;;;;;5043659;28;20121;-79
2022/03/09 03:23:56;;;;;;;1.80;1.35;;;;;;;;;;5048434;28;20754;-83
2022/03/09 03:26:24;;;;;;;0.93;0.93;;;;;;;;;;5044821;28;20040;-82
2022/03/09 03:28:50;;;;;;;2.63;2.03;;;;;;;;;;5044554;28;20124;-81
2022/03/09 03:31:16;;;;;;;2.25;1.45;;;;;;;;;;5051056;28;20028;-79
2022/03/09 03:33:42;;;;;;;2.25;1.42;;;;;;;;;;5046518;28;20025;-79
2022/03/09 03:36:08;;;;;;;1.33;1.23;;;;;;;;;;5048303;28;20080;-80
2022/03/09 03:38:34;;;;;;;3.17;2.42;;;;;;;;;;5040476;28;20025;-81
2022/03/09 03:41:00;;;;;;;2.78;2.00;;;;;;;;;;5050699;28;20063;-78
2022/03/09 03:43:26;;;;;;;1.75;1.40;;;;;;;;;;5041450;28;20021;-77
2022/03/09 03:45:52;;;;;;;3.80;1.17;;;;;;;;;;5047574;28;20052;-78
2022/03/09 03:48:18;;;;;;;4.40;2.65;;;;;;;;;;5050453;28;20024;-78
2022/03/09 03:50:44;;;;;;;1.25;1.15;;;;;;;;;;5051330;28;20029;-77
2022/03/09 03:53:10;;;;;;;3.35;1.23;;;;;;;;;;5044561;28;20112;-78
2022/03/09 03:55:36;;;;;;;4.07;1.75;;;;;;;;;;5043789;28;20059;-78
2022/03/09 03:58:03;;;;;;;2.78;2.45;;;;;;;;;;5046717;28;20028;-79
2022/03/09 04:00:29;;;;;;;6.35;2.05;;;;;;;;;;5045071;28;20099;-79
2022/03/09 04:02:55;;;;;;;1.92;1.05;;;;;;;;;;5044978;28;20465;-79
2022/03/09 04:05:21;;;;;;;4.85;2.45;;;;;;;;;;5042797;28;20033;-78
2022/03/09 04:07:47;;;;;;;2.08;1.23;;;;;;;;;;5039872;28;20060;-80
2022/03/09 04:10:13;;;;;;;1.08;0.98;;;;;;;;;;5053565;28;20454;-81
2022/03/09 04:12:39;;;;;;;3.85;1.80;;;;;;;;;;5034646;28;20020;-79
2022/03/09 04:15:05;;;;;;;3.28;2.10;;;-5.60;99.90;;;;;;5048072;28;20477;-81
2022/03/09 04:17:45;;;;;;;3.10;1.42;;;;;;;;;;5045093;28;20385;-78
2022/03/09 04:20:11;;;;;;;1.92;1.58;;;;;;;;;;5044393;28;20655;-78
2022/03/09 04:22:38;;;;;;;2.05;1.45;;;;;;;;;;5043314;28;20124;-78
2022/03/09 04:25:04;;;;;;;2.08;1.63;;;;;;;;;;5053937;28;20040;-78
2022/03/09 04:27:30;;;;;;;1.55;1.45;;;;;;;;;;5042917;28;20564;-79
2022/03/09 04:29:56;;;;;;;1.42;1.17;;;;;;;;;;5044590;28;20068;-80
2022/03/09 04:32:24;;;;;;;1.20;1.08;;;;;;;;;;5049717;28;20115;-80
2022/03/09 04:34:50;;;;;;;3.30;1.50;;;;;;;;;;5040343;28;20052;-78
2022/03/09 04:37:16;;;;;;;3.80;2.00;;;;;;;;;;5038751;28;20029;-77
2022/03/09 04:39:42;;;;;;;3.22;1.33;;;;;;;;;;5044636;28;20078;-79
2022/03/09 04:42:08;;;;;;;3.20;1.77;;;;;;;;;;5041201;28;20033;-80
2022/03/09 04:44:34;;;;;;;6.85;1.45;;;;;;;;;;5041111;28;20064;-79
2022/03/09 04:47:00;;;;;;;2.08;1.05;;;;;;;;;;5045667;28;20116;-79
2022/03/09 04:49:26;;;;;;;3.47;2.15;;;;;;;;;;5043595;28;20128;-81
2022/03/09 04:51:52;;;;;;;2.47;1.60;;;;;;;;;;5041354;28;20104;-80
2022/03/09 04:54:18;;;;;;;3.00;1.80;;;;;;;;;;5043371;28;20156;-80
2022/03/09 04:56:44;;;;;;;2.92;2.05;;;;;;;;;;5044100;28;20032;-78
2022/03/09 04:59:10;;;;;;;1.83;1.70;;;;;;;;;;5044766;28;20515;-81
2022/03/09 05:01:36;;;;;;;4.25;2.40;;;;;;;;;;5045235;28;20116;-79
2022/03/09 05:04:02;;;;;;;2.67;1.77;;;;;;;;;;5041653;28;20029;-80
2022/03/09 05:06:28;;;;;;;3.05;1.50;;;;;;;;;;5051642;28;20485;-76
2022/03/09 05:08:54;;;;;;;2.80;1.88;;;;;;;;;;5037629;28;20283;-78
2022/03/09 05:11:20;;;;;;;3.28;2.17;;;;;;;;;;5045582;28;20433;-81
2022/03/09 05:13:46;;;;;;;2.55;1.30;;;;;;;;;;5039598;28;22500;-81
2022/03/09 05:16:12;;;;;;;3.72;1.75;;;;;;;;;;5046050;28;20025;-77
2022/03/09 05:18:40;;;;;;;2.78;1.88;;;;;;;;;;5044317;28;20017;-77
2022/03/09 05:21:06;;;;;;;3.55;2.45;;;;;;;;;;5036617;28;20065;-79
2022/03/09 05:23:32;;;;;;;21.23;5.60;;;;;;;;;;5039907;28;20055;-79
2022/03/09 05:25:58;;;;;;;19.05;8.10;;;;;;;;;;5042142;28;20044;-80
2022/03/09 05:28:24;;;;;;;12.73;7.05;;;;;;;;;;5040202;28;20025;-79
2022/03/09 05:30:50;;;;;;;19.95;11.60;;;;;;;;;;5027646;28;20037;-84
2022/03/09 05:33:16;;;;;;;28.65;11.57;;;;;;;;;;5033769;28;20146;-82
2022/03/09 05:35:42;;;;;;;16.52;7.72;;;;;;;;;;5032116;28;20063;-79
2022/03/09 05:38:08;;;;;;;10.90;2.40;;;;;;;;;;5038913;28;20052;-78
2022/03/09 05:40:34;;;;;;;5.82;4.10;;;;;;;;;;5036842;28;20033;-78
2022/03/09 05:43:00;;;;;;;7.60;2.92;;;;;;;;;;5035533;28;20024;-80
2022/03/09 05:45:26;;;;;;;6.00;3.53;;;;;;;;;;5031351;28;20222;-79
2022/03/09 05:47:52;;;;;;;4.45;2.63;;;;;;;;;;5036409;28;20083;-80
2022/03/09 05:50:18;;;;;;;5.43;2.08;;;;;;;;;;5034151;28;21529;-81
2022/03/09 05:52:44;;;;;;;1.60;1.50;;;;;;;;;;5040232;28;20059;-79
2022/03/09 05:55:10;;;;;;;5.93;1.70;;;;;;;;;;5042079;28;20083;-81
2022/03/09 05:57:36;;;;;;;1.98;1.27;;;;;;;;;;5036195;28;20037;-81
2022/03/09 06:00:06;;;;;;;9.85;3.08;;;;;;;;;;5038200;28;20047;-81
2022/03/09 06:02:32;;;;;;;6.60;2.30;;;;;;;;;;5039436;28;20028;-81
2022/03/09 06:04:58;;;;;;;3.28;2.15;;;;;;;;;;5041925;28;20025;-79
2022/03/09 06:07:24;;;;;;;1.75;1.38;;;;;;;;;;5042312;28;20340;-78
2022/03/09 06:09:50;;;;;;;3.90;3.00;;;;;;;;;;5040850;28;20025;-80
2022/03/09 06:12:16;;;;;;;3.25;2.03;;;;;;;;;;5040501;28;20056;-79
2022/03/09 06:14:42;;;;;;;6.00;2.78;;;;;;;;;;5039770;28;20033;-78
2022/03/09 06:17:08;;;;;;;2.08;1.63;;;;;;;;;;5046779;28;20028;-79
2022/03/09 06:19:34;;;;;;;2.55;1.35;;;;;;;;;;5031604;28;20033;-82
2022/03/09 06:22:00;;;;;;;2.13;1.52;;;;;;;;;;5040763;28;20540;-79
2022/03/09 06:24:26;;;;;;;3.75;2.20;;;;;;;;;;5033454;28;20742;-79
2022/03/09 06:26:53;;;;;;;3.15;2.10;;;;;;;;;;5039666;28;20025;-81
2022/03/09 06:29:19;;;;;;;11.65;3.53;;;;;;;;;;5039499;28;20033;-83
2022/03/09 06:31:46;;;;;;;11.02;3.05;;;;;;;;;;5043750;28;20025;-78
2022/03/09 06:34:12;;;;;;;17.85;6.38;;;;;;;;;;5037050;28;20047;-81
2022/03/09 06:36:43;;;;;;;3.20;1.63;;;;;;;;;;5039037;28;20119;-79
2022/03/09 06:39:09;;;;;;;6.22;1.50;;;;;;;;;;5040140;28;20124;-78
2022/03/09 06:41:35;;;;;;;6.20;2.25;;;;;;;;;;5038240;28;20117;-79
2022/03/09 06:44:01;;;;;;;14.85;6.68;;;;;;;;;;5043453;28;20512;-83
2022/03/09 06:46:27;;;;;;;5.60;4.22;;;;;;;;;;5046870;28;20082;-79
2022/03/09 06:48:53;;;;;;;12.90;6.53;;;;;;;;;;5045228;28;20036;-80
2022/03/09 06:51:18;;;;;;;10.77;5.00;;;;;;;;;;5038592;28;20029;-79
2022/03/09 06:53:45;;;;;;;4.68;2.95;;;;;;;;;;5044625;28;20335;-80
2022/03/09 06:56:11;;;;;;;8.52;3.35;;;;;;;;;;5045208;28;20025;-80
2022/03/09 06:58:37;;;;;;;4.78;4.00;;;;;;;;;;5043431;28;20074;-81
2022/03/09 07:01:04;;;;;;;4.95;3.13;;;;;;;;;;5045035;28;20095;-80
2022/03/09 07:03:30;;;;;;;6.82;3.97;;;;;;;;;;5048011;28;20106;-81
2022/03/09 07:05:56;;;;;;;7.22;3.35;;;;;;;;;;5044824;28;20032;-80
2022/03/09 07:08:22;;;;;;;8.00;1.77;;;;;;;;;;5046681;28;20029;-80
2022/03/09 07:10:48;;;;;;;2.53;2.30;;;;;;;;;;5049134;28;20113;-80
2022/03/09 07:13:14;;;;;;;3.40;2.38;;;;;;;;;;5038073;28;20026;-79
2022/03/09 07:15:40;;;;;;;6.07;2.65;;;;;;;;;;5048423;28;20040;-80
2022/03/09 07:18:06;;;;;;;5.32;3.10;;;;;;;;;;5049190;28;20041;-81
2022/03/09 07:20:32;;;;;;;7.32;3.25;;;;;;;;;;5042711;28;20107;-83
2022/03/09 07:22:58;;;;;;;4.97;2.67;;;;;;;;;;5043285;28;20052;-78
2022/03/09 07:25:24;;;;;;;3.45;2.42;;;;;;;;;;5044003;28;20053;-80
2022/03/09 07:27:50;;;;;;;3.10;1.67;;;;;;;;;;5042848;28;20238;-80
2022/03/09 07:30:16;;;;;;;3.92;2.67;;;;;;;;;;5047556;28;20091;-82
2022/03/09 07:32:42;;;;;;;6.57;3.28;;;;;;;;;;5045815;28;20028;-78
2022/03/09 07:35:09;;;;;;;3.60;1.85;;;-3.50;99.90;;;;;;5046548;28;20455;-78
2022/03/09 07:37:35;;;;;;;4.03;2.10;;;;;;;;;;5040403;28;20025;-80
2022/03/09 07:40:01;;;;;;;6.45;2.63;;;;;;;;;;5047527;28;20036;-83
2022/03/09 07:42:27;;;;;;;3.80;2.75;;;;;;;;;;5045028;28;20021;-80
2022/03/09 07:44:53;;;;;;;5.20;1.83;;;;;;;;;;5046546;28;20033;-81
2022/03/09 07:47:20;;;;;;;6.20;3.00;;;;;;;;;;5042551;28;20028;-79
2022/03/09 07:49:46;;;;;;;6.07;3.65;;;;;;;;;;5044776;28;20036;-78
2022/03/09 07:52:12;;;;;;;4.28;2.83;;;;;;;;;;5041953;28;20032;-79
2022/03/09 07:54:38;;;;;;;4.68;3.63;;;;;;;;;;5041761;28;20381;-79
2022/03/09 07:57:04;;;;;;;11.10;3.60;;;;;;;;;;5040714;28;20135;-79
2022/03/09 07:59:30;;;;;;;5.50;2.58;;;;;;;;;;5042122;28;20037;-81
2022/03/09 08:01:56;;;;;;;4.70;2.28;;;;;;;;;;5037628;28;20025;-81
2022/03/09 08:04:22;;;;;;;5.32;3.60;;;;;;;;;;5039263;28;20025;-78
2022/03/09 08:06:49;;;;;;;3.08;2.08;;;-1.20;99.90;;;;;;5043513;28;20468;-81
2022/03/09 08:09:15;;;;;;;4.97;2.08;;;;;;;;;;5034314;28;20486;-78
2022/03/09 08:11:41;;;;;;;5.97;3.42;;;;;;;;;;5045477;28;20025;-80
2022/03/09 08:14:08;;;;;;;5.25;1.77;;;;;;;;;;5041704;28;20560;-78
2022/03/09 08:16:33;;;;;;;7.32;2.83;;;;;;;;;;5040802;28;20102;-78
2022/03/09 08:18:59;;;;;;;4.53;3.00;;;;;;;;;;5043786;28;20477;-79
2022/03/09 08:21:25;;;;;;;5.68;2.25;;;;;;;;;;5038089;28;20037;-81
2022/03/09 08:23:51;;;;;;;4.10;2.13;;;;;;;;;;5039838;28;20056;-77
2022/03/09 08:26:18;;;;;;;5.60;2.60;;;;;;;;;;5035178;28;20031;-81
2022/03/09 08:28:44;;;;;;;4.50;2.63;;;;;;;;;;5037193;28;20029;-78
2022/03/09 08:31:10;;;;;;;6.03;3.20;;;;;;;;;;5042997;28;20055;-81
2022/03/09 08:33:36;;;;;;;6.97;3.30;;;;;;;;;;5049238;28;20039;-80
2022/03/09 08:36:03;;;;;;;10.43;4.25;;;;;;;;;;5045591;28;20600;-81
2022/03/09 08:38:29;;;;;;;6.35;3.75;;;;;;;;;;5040816;28;20445;-82
2022/03/09 08:40:55;;;;;;;5.90;3.22;;;;;;;;;;5040105;28;20037;-80
2022/03/09 08:43:21;;;;;;;4.70;3.13;;;;;;;;;;5039564;28;20025;-85
2022/03/09 08:45:47;;;;;;;6.10;2.65;;;;;;;;;;5041780;28;20037;-86
2022/03/09 08:48:13;;;;;;;7.82;3.28;;;;;;;;;;5045269;28;20108;-85
2022/03/09 08:50:39;;;;;;;8.73;3.15;;;;;;;;;;5042512;28;20114;-86
2022/03/09 08:53:06;;;;;;;7.00;3.72;;;;;;;;;;5035825;28;20035;-85
2022/03/09 08:55:32;;;;;;;5.50;2.53;;;;;;;;;;5036723;28;20448;-84
2022/03/09 08:58:00;;;;;;;6.18;2.58;;;;;;;;;;5041190;28;20040;-85
2022/03/09 09:00:26;;;;;;;6.72;2.72;;;;;;;;;;5049120;28;20041;-84
2022/03/09 09:02:53;;;;;;;5.15;1.88;;;;;;;;;;5042987;28;20028;-85
2022/03/09 09:05:19;;;;;;;2.97;2.10;;;;;;;;;;5039344;28;20025;-82
2022/03/09 09:07:45;;;;;;;3.55;2.33;;;;;;;;;;5047758;28;20032;-84
2022/03/09 09:10:12;;;;;;;4.35;2.15;;;;;;;;;;5043152;28;20040;-84
2022/03/09 09:12:38;;;;;;;6.97;2.33;;;;;;;;;;5037253;28;20056;-86
2022/03/09 09:15:04;;;;;;;7.05;2.28;;;;;;;;;;5034433;28;20115;-84
2022/03/09 09:17:30;;;;;;;6.07;2.72;;;;;;;;;;5031958;28;20508;-88
2022/03/09 09:19:56;;;;;;;4.80;2.58;;;;;;;;;;5036170;28;20047;-84
2022/03/09 09:22:22;;;;;;;4.93;1.88;;;;;;;;;;5044986;28;20021;-83
2022/03/09 09:24:48;;;;;;;4.95;2.55;;;;;;;;;;5044787;28;20071;-84
2022/03/09 09:27:14;;;;;;;4.03;2.45;;;;;;;;;;5041218;28;20482;-85
2022/03/09 09:29:40;;;;;;;3.88;2.25;;;;;;;;;;5043950;28;20037;-85
2022/03/09 09:32:06;;;;;;;6.05;2.70;;;;;;;;;;5033872;28;20091;-85
2022/03/09 09:34:32;;;;;;;9.45;2.60;;;;;;;;;;5043230;28;20521;-83
2022/03/09 09:37:00;;;;;;;4.45;1.67;;;;;;;;;;5037334;28;20024;-86
2022/03/09 09:39:26;;;;;;;4.07;2.05;;;;;;;;;;5037731;28;20041;-85
2022/03/09 09:41:52;;;;;;;6.68;2.28;;;;;;;;;;5037404;28;20075;-86
2022/03/09 09:44:20;;;;;;;7.38;3.83;;;;;;;;;;5046190;28;20170;-86
2022/03/09 09:46:46;;;;;;;5.50;2.60;;;;;;;;;;5045560;28;20039;-88
2022/03/09 09:49:14;;;;;;;4.82;2.40;;;7.80;81.90;;;;;;5042569;28;20041;-85
2022/03/09 09:51:41;;;;;;;6.97;2.33;;;;;;;;;;5033871;28;20064;-85
2022/03/09 09:54:07;;;;;;;5.70;1.70;;;;;;;;;;5036007;28;20056;-88
2022/03/09 09:56:37;;;;;;;13.95;3.85;;;;;;;;;;5039348;28;20033;-84
2022/03/09 09:59:03;;;;;;;5.35;2.42;;;;;;;;;;5040801;28;20037;-83
2022/03/09 10:01:29;;;;;;;6.38;2.38;;;;;;;;;;5048365;28;20073;-83
2022/03/09 10:03:55;;;;;;;5.70;2.35;;;;;;;;;;5042235;28;20030;-85
2022/03/09 10:06:21;;;;;;;4.70;2.25;;;;;;;;;;5050094;28;20037;-86
2022/03/09 10:09:07;;;;;;;6.88;2.88;;;;;;;;;;5041768;28;20029;-84
2022/03/09 10:11:52;;;;;;;5.95;2.47;;;;;;;;;;5040497;28;20121;-87
2022/03/09 10:14:36;;;;;;;3.45;2.25;;;;;;;;;;5036311;28;20117;-86
2022/03/09 10:17:03;;;;;;;4.07;2.17;;;;;;;;;;5045421;28;20584;-87
2022/03/09 10:19:30;;;;;;;4.75;2.15;;;;;;;;;;5043299;28;20108;-83
2022/03/09 10:21:56;;;;;;;6.82;2.17;;;;;;;;;;5045399;28;20754;-86
2022/03/09 10:24:33;;;;;;;9.27;2.83;;;;;;;;;;5044916;28;20116;-87
2022/03/09 10:27:00;;;;;;;4.18;2.47;;;;;;;;;;5044324;28;20456;-86
2022/03/09 10:29:28;;;;;;;5.82;2.25;;;;;;;;;;5049252;28;20041;-83
2022/03/09 10:31:59;;;;;;;7.32;3.50;;;;;;;;;;5044332;28;20048;-83
2022/03/09 10:34:26;;;;;;;4.90;2.15;;;;;;;;;;5041997;28;20030;-85
2022/03/09 10:37:06;;;;;;;11.43;2.30;;;;;;;;;;5046860;28;20458;-83
2022/03/09 10:39:34;;;;;;;6.60;2.65;;;;;;;;;;5042901;28;20389;-83
2022/03/09 10:42:02;;;;;;;5.85;2.22;;;;;;;;;;5049564;28;20026;-84
2022/03/09 10:44:45;;;;;;;9.63;3.08;;;;;;;;;;5049527;28;20051;-83
2022/03/09 10:47:11;;;;;;;7.80;2.35;;;;;;;;;;5042223;28;20033;-87
2022/03/09 10:49:37;;;;;;;6.15;2.53;;;;;;;;;;5040283;28;20035;-84
2022/03/09 10:52:03;;;;;;;5.70;2.67;;;10.00;71.20;;;;;;5041179;28;20420;-82
2022/03/09 10:54:32;;;;;;;3.80;2.15;;;;;;;;;;5039510;28;20028;-83
2022/03/09 10:57:06;;;;;;;8.02;3.08;;;;;;;;;;5047789;28;20489;-81
2022/03/09 10:59:49;;;;;;;6.78;2.65;;;;;;;;;;5053211;28;20052;-83
2022/03/09 11:02:16;;;;;;;4.77;2.93;;;;;;;;;;5052592;28;20092;-81
2022/03/09 11:04:42;;;;;;;3.92;2.58;;;;;;;;;;5051299;28;20280;-82
2022/03/09 11:07:09;;;;;;;5.63;3.30;;;;;;;;;;5048246;28;20025;-82
2022/03/09 11:09:37;;;;;;;7.78;3.58;;;;;;;;;;5032662;28;20032;-82
2022/03/09 11:12:03;;;;;;;8.38;2.72;;;;;;;;;;5051045;28;20237;-83
2022/03/09 11:14:29;;;;;;;6.47;2.70;;;;;;;;;;5045421;28;20028;-82
2022/03/09 11:17:00;;;;;;;7.20;2.58;;;;;;;;;;5047513;28;20128;-82
2022/03/09 11:19:27;;;;;;;10.70;4.28;;;;;;;;;;5048277;28;20029;-82
2022/03/09 11:21:53;;;;;;;12.82;3.83;;;;;;;;;;5047316;28;20028;-83
2022/03/09 11:24:20;;;;;;;6.88;3.40;;;;;;;;;;5054630;28;20459;-84
2022/03/09 11:26:56;;;;;;;12.98;3.20;;;;;;;;;;5048929;28;20126;-84
2022/03/09 11:29:31;;;;;;;8.10;3.20;;;;;;;;;;5059048;28;20040;-81
2022/03/09 11:31:57;;;;;;;12.18;5.43;;;;;;;;;;5056545;28;20075;-86
2022/03/09 11:34:43;;;;;;;8.18;3.25;;;;;;;;;;5050643;28;20039;-84
2022/03/09 11:37:10;;;;;;;6.00;2.60;;;;;;;;;;5047528;28;20086;-82
2022/03/09 11:39:37;;;;;;;8.63;3.20;;;;;;;;;;5049531;28;20033;-81
2022/03/09 11:42:21;;;;;;;6.43;3.15;;;;;;;;;;5044568;28;20115;-85
2022/03/09 11:44:51;;;;;;;6.25;3.35;;;;;;;;;;5053788;28;20028;-82
2022/03/09 11:47:18;;;;;;;7.78;3.22;;;10.80;67.00;;;;;;5050329;28;20025;-83
2022/03/09 11:49:52;;;;;;;7.38;3.63;;;;;;;;;;5055396;28;20057;-82
2022/03/09 11:52:22;;;;;;;9.50;4.30;;;;;;;;;;5044824;28;20668;-83
2022/03/09 11:54:55;;;;;;;11.70;5.20;;;;;;;;;;5051638;28;20485;-83
2022/03/09 11:57:23;;;;;;;5.00;2.92;;;;;;;;;;5046963;28;20044;-82
2022/03/09 12:00:09;;;;;;;11.60;3.47;;;;;;;;;;5042988;28;22073;-83
2022/03/09 12:02:47;;;;;;;7.95;3.08;;;;;;;;;;5046891;28;20033;-83
2022/03/09 12:05:34;;;;;;;5.57;2.90;;;;;;;;;;5038162;28;20037;-83
2022/03/09 12:08:18;;;;;;;6.38;2.50;;;;;;;;;;5047313;28;20052;-83
2022/03/09 12:10:48;;;;;;;6.55;2.85;;;;;;;;;;5052404;28;20060;-83
2022/03/09 12:13:32;;;;;;;6.00;2.90;;;;;;;;;;5044068;28;20060;-82
2022/03/09 12:15:58;;;;;;;4.65;2.47;;;;;;;;;;5049708;28;20087;-83
2022/03/09 12:18:37;;;;;;;7.38;3.20;;;;;;;;;;5045094;28;20648;-83
2022/03/09 12:21:03;;;;;;;10.90;3.50;;;;;;;;;;5042374;28;20029;-84
2022/03/09 12:23:29;;;;;;;13.52;3.92;;;;;;;;;;5044847;28;20021;-82
2022/03/09 12:25:58;;;;;;;5.90;2.90;;;;;;;;;;5040593;28;20092;-84
2022/03/09 12:28:28;;;;;;;8.25;2.97;;;;;;;;;;5041196;28;20081;-82
2022/03/09 12:31:03;;;;;;;7.47;3.05;;;;;;;;;;5049589;28;20088;-83
2022/03/09 12:33:42;;;;;;;6.90;3.55;;;11.30;58.60;;;;;;5050039;28;20082;-84
2022/03/09 12:36:09;;;;;;;6.15;3.20;;;;;;;;;;5045612;28;20083;-86
2022/03/09 12:38:55;;;;;;;7.45;2.70;;;;;;;;;;5036396;28;20112;-85
2022/03/09 12:41:29;;;;;;;6.47;3.45;;;;;;;;;;5049555;28;20068;-85
2022/03/09 12:44:05;;;;;;;5.95;2.47;;;;;;;;;;5037187;28;20059;-86
2022/03/09 12:46:32;;;;;;;6.47;3.10;;;;;;;;;;5047515;28;20093;-83
2022/03/09 12:49:05;;;;;;;7.13;2.97;;;;;;;;;;5042193;28;20032;-85
2022/03/09 12:51:31;;;;;;;;;;;;;;;;;;5046839;28;20647;-81
2022/03/09 12:53:57;;;;;;;4.38;2.20;;;;;;;;;;5037715;28;19923;-87
2022/03/09 12:56:26;;;;;;;6.45;2.65;;;12.00;70.40;;;;;;5045751;28;20037;-82
2022/03/09 12:58:53;;;;;;;6.70;2.83;;;;;;;;;;5043923;28;20036;-83
2022/03/09 13:01:19;;;;;;;5.85;2.17;;;;;;;;;;5041873;28;20083;-87
2022/03/09 13:03:46;;;;;;;6.10;2.75;;;;;;;;;;5045129;28;20395;-85
2022/03/09 13:06:36;;;;;;;15.55;2.72;;;;;;;;;;5044441;28;20025;-85
2022/03/09 13:09:03;;;;;;;5.75;1.98;;;;;;;;;;5049597;28;20047;-85
2022/03/09 13:11:31;;;;;;;4.93;2.53;;;;;;;;;;5046473;28;20029;-86
2022/03/09 13:13:58;;;;;;;7.32;2.95;;;;;;;;;;5045578;28;20049;-83
2022/03/09 13:16:26;;;;;;;4.30;2.03;;;;;;;;;;5048015;28;20131;-82
2022/03/09 13:18:56;;;;;;;5.15;2.65;;;;;;;;;;5047826;28;20041;-84
2022/03/09 13:21:28;;;;;;;5.50;2.60;;;;;;;;;;5045915;28;20158;-84
2022/03/09 13:23:59;;;;;;;7.00;3.20;;;12.10;52.70;;;;;;5047379;28;20443;-84
2022/03/09 13:26:26;;;;;;;4.15;2.35;;;;;;;;;;5046529;28;20079;-84
2022/03/09 13:28:57;;;;;;;3.22;1.48;;;;;;;;;;5040054;28;20021;-81
2022/03/09 13:31:39;;;;;;;4.63;2.28;;;;;;;;;;5045863;28;20040;-83
2022/03/09 13:34:16;;;;;;;4.18;1.58;;;;;;;;;;5048009;28;20417;-82
2022/03/09 13:36:43;;;;;;;4.68;2.30;;;;;;;;;;5043346;28;20184;-85
2022/03/09 13:39:09;;;;;;;6.90;2.00;;;;;;;;;;5044805;28;20036;-82
2022/03/09 13:41:40;;;;;;;7.40;2.65;;;;;;;;;;5046904;28;20037;-88
2022/03/09 13:44:23;;;;;;;6.40;2.33;;;;;;;;;;5042604;28;20029;-82
2022/03/09 13:47:01;;;;;;;6.25;2.70;;;;;;;;;;5047136;28;20029;-84
2022/03/09 13:49:27;;;;;;;2.92;1.40;;;;;;;;;;5047183;28;20116;-82
2022/03/09 13:51:53;;;;;;;5.40;2.10;;;;;;;;;;5045849;28;20053;-86
2022/03/09 13:54:21;;;;;;;3.67;1.85;;;;;;;;;;5048291;28;20054;-87
2022/03/09 13:56:59;;;;;;;5.85;1.90;;;;;;;;;;5052669;28;20032;-83
2022/03/09 13:59:38;;;;;;;6.13;2.10;;;;;;;;;;5049885;28;20021;-82
2022/03/09 14:02:17;;;;;;;4.88;2.42;;;;;;;;;;5045599;28;20118;-83
2022/03/09 14:04:44;;;;;;;2.50;1.45;;;;;;;;;;5045450;28;20268;-84
2022/03/09 14:07:10;;;;;;;3.50;1.42;;;;;;;;;;5045611;28;20564;-84
2022/03/09 14:09:36;;;;;;;8.85;2.17;;;;;;;;;;5044827;28;20104;-83
2022/03/09 14:12:15;;;;;;;3.70;1.67;;;;;;;;;;5046720;28;20076;-85
2022/03/09 14:14:41;;;;;;;6.45;2.85;;;;;;;;;;5049425;28;20540;-86
2022/03/09 14:17:08;;;;;;;4.15;1.75;;;;;;;;;;5052445;28;20029;-81
2022/03/09 14:19:34;;;;;;;6.55;1.83;;;;;;;;;;5053645;28;20037;-79
2022/03/09 14:21:59;;;;;;;6.28;2.08;;;;;;;;;;5051475;28;20028;-80
2022/03/09 14:24:27;;;;;;;5.53;2.05;;;;;;;;;;5049249;28;20029;-80
2022/03/09 14:26:53;;;;;;;4.90;1.77;;;;;;;;;;5052199;28;20036;-80
2022/03/09 14:29:19;;;;;;;4.07;1.80;;;12.00;50.70;;;;;;5056096;28;20432;-80
2022/03/09 14:31:46;;;;;;;7.63;2.35;;;;;;;;;;5050251;28;20026;-79
2022/03/09 14:34:13;;;;;;;7.43;2.72;;;;;;;;;;5055763;28;20643;-80
2022/03/09 14:36:40;;;;;;;4.15;2.10;;;;;;;;;;5055226;28;20492;-81
2022/03/09 14:39:06;;;;;;;5.00;2.10;;;;;;;;;;5048282;28;20033;-79
2022/03/09 14:41:32;;;;;;;7.75;2.25;;;;;;;;;;5047303;28;20043;-78
2022/03/09 14:43:59;;;;;;;3.70;1.73;;;;;;;;;;5055388;28;20100;-79